sensor_id;sensor_type;location;lat;lon;timestamp;temperature;humidity
3602;DHT22;1815;50.950;6.920;2023-10-08T00:01:53;21.70;99.90
3602;DHT22;1815;50.950;6.920;2023-10-08T00:04:21;21.70;99.90
3602;DHT22;1815;50.950;6.920;2023-10-08T00:06:47;21.70;99.90
3602;DHT22;1815;50.950;6.920;2023-10-08T00:09:13;21.60;99.90
3602;DHT22;1815;50.950;6.920;2023-10-08T00:11:40;21.70;99.90
3602;DHT22;1815;50.950;6.920;2023-10-08T00:14:06;21.60;99.90
3602;DHT22;1815;50.950;6.920;2023-10-08T00:16:36;21.60;99.90
3602;DHT22;1815;50.950;6.920;2023-10-08T00:19:06;21.50;99.90
3602;DHT22;1815;50.950;6.920;2023-10-08T00:21:36;21.50;99.90
3602;DHT22;1815;50.950;6.920;2023-10-08T00:24:04;21.50;99.90
3602;DHT22;1815;50.950;6.920;2023-10-08T00:26:33;21.40;99.90
3602;DHT22;1815;50.950;6.920;2023-10-08T00:29:05;21.30;99.90
3602;DHT22;1815;50.950;6.920;2023-10-08T00:32:03;21.30;99.90
3602;DHT22;1815;50.950;6.920;2023-10-08T00:34:38;21.20;99.90
3602;DHT22;1815;50.950;6.920;2023-10-08T00:37:07;21.20;99.90
3602;DHT22;1815;50.950;6.920;2023-10-08T00:39:35;21.10;99.90
3602;DHT22;1815;50.950;6.920;2023-10-08T00:42:03;21.10;99.90
3602;DHT22;1815;50.950;6.920;2023-10-08T00:44:36;21.00;99.90
3602;DHT22;1815;50.950;6.920;2023-10-08T00:47:15;21.00;99.90
3602;DHT22;1815;50.950;6.920;2023-10-08T00:49:42;21.00;99.90
3602;DHT22;1815;50.950;6.920;2023-10-08T00:52:13;20.90;99.90
3602;DHT22;1815;50.950;6.920;2023-10-08T00:54:41;20.90;99.90
3602;DHT22;1815;50.950;6.920;2023-10-08T00:57:28;20.90;99.90
3602;DHT22;1815;50.950;6.920;2023-10-08T00:59:56;20.80;99.90
3602;DHT22;1815;50.950;6.920;2023-10-08T01:02:31;20.80;99.90
3602;DHT22;1815;50.950;6.920;2023-10-08T01:05:13;20.80;99.90
3602;DHT22;1815;50.950;6.920;2023-10-08T01:07:43;20.80;99.90
3602;DHT22;1815;50.950;6.920;2023-10-08T01:10:14;20.70;99.90
3602;DHT22;1815;50.950;6.920;2023-10-08T01:12:46;20.70;99.90
3602;DHT22;1815;50.950;6.920;2023-10-08T01:15:31;20.70;99.90
3602;DHT22;1815;50.950;6.920;2023-10-08T01:18:01;20.70;99.90
3602;DHT22;1815;50.950;6.920;2023-10-08T01:20:32;20.70;99.90
3602;DHT22;1815;50.950;6.920;2023-10-08T01:22:58;20.70;99.90
3602;DHT22;1815;50.950;6.920;2023-10-08T01:25:25;20.60;99.90
3602;DHT22;1815;50.950;6.920;2023-10-08T01:27:58;20.60;99.90
3602;DHT22;1815;50.950;6.920;2023-10-08T01:30:27;20.60;99.90
3602;DHT22;1815;50.950;6.920;2023-10-08T01:32:59;20.50;99.90
3602;DHT22;1815;50.950;6.920;2023-10-08T01:35:28;20.40;99.90
3602;DHT22;1815;50.950;6.920;2023-10-08T01:37:57;20.40;99.90
3602;DHT22;1815;50.950;6.920;2023-10-08T01:40:25;20.30;99.90
3602;DHT22;1815;50.950;6.920;2023-10-08T01:42:52;20.20;99.90
3602;DHT22;1815;50.950;6.920;2023-10-08T01:45:18;20.20;99.90
3602;DHT22;1815;50.950;6.920;2023-10-08T01:47:44;20.20;99.90
3602;DHT22;1815;50.950;6.920;2023-10-08T01:50:10;20.10;99.90
3602;DHT22;1815;50.950;6.920;2023-10-08T01:52:47;20.00;99.90
3602;DHT22;1815;50.950;6.920;2023-10-08T01:55:13;20.00;99.90
3602;DHT22;1815;50.950;6.920;2023-10-08T01:57:46;20.00;99.90
3602;DHT22;1815;50.950;6.920;2023-10-08T02:00:13;19.90;99.90
3602;DHT22;1815;50.950;6.920;2023-10-08T02:02:46;19.90;99.90
3602;DHT22;1815;50.950;6.920;2023-10-08T02:05:12;19.80;99.90
3602;DHT22;1815;50.950;6.920;2023-10-08T02:07:41;19.70;99.90
3602;DHT22;1815;50.950;6.920;2023-10-08T02:10:10;19.70;99.90
3602;DHT22;1815;50.950;6.920;2023-10-08T02:12:37;19.60;99.90
3602;DHT22;1815;50.950;6.920;2023-10-08T02:15:04;19.60;99.90
3602;DHT22;1815;50.950;6.920;2023-10-08T02:17:32;19.50;99.90
3602;DHT22;1815;50.950;6.920;2023-10-08T02:19:58;19.50;99.90
3602;DHT22;1815;50.950;6.920;2023-10-08T02:22:24;19.50;99.90
3602;DHT22;1815;50.950;6.920;2023-10-08T02:24:50;19.40;99.90
3602;DHT22;1815;50.950;6.920;2023-10-08T02:27:16;19.40;99.90
3602;DHT22;1815;50.950;6.920;2023-10-08T02:29:42;19.30;99.90
3602;DHT22;1815;50.950;6.920;2023-10-08T02:32:08;19.30;99.90
3602;DHT22;1815;50.950;6.920;2023-10-08T02:34:34;19.30;99.90
3602;DHT22;1815;50.950;6.920;2023-10-08T02:37:01;19.20;99.90
3602;DHT22;1815;50.950;6.920;2023-10-08T02:39:29;19.20;99.90
3602;DHT22;1815;50.950;6.920;2023-10-08T02:41:58;19.20;99.90
3602;DHT22;1815;50.950;6.920;2023-10-08T02:44:26;19.20;99.90
3602;DHT22;1815;50.950;6.920;2023-10-08T02:46:53;19.10;99.90
3602;DHT22;1815;50.950;6.920;2023-10-08T02:49:21;19.10;99.90
3602;DHT22;1815;50.950;6.920;2023-10-08T02:51:53;19.10;99.90
3602;DHT22;1815;50.950;6.920;2023-10-08T02:54:21;19.10;99.90
3602;DHT22;1815;50.950;6.920;2023-10-08T02:56:52;19.10;99.90
3602;DHT22;1815;50.950;6.920;2023-10-08T02:59:23;19.20;99.90
3602;DHT22;1815;50.950;6.920;2023-10-08T03:01:50;19.20;99.90
3602;DHT22;1815;50.950;6.920;2023-10-08T03:04:18;19.20;99.90
3602;DHT22;1815;50.950;6.920;2023-10-08T03:06:45;19.20;99.90
3602;DHT22;1815;50.950;6.920;2023-10-08T03:09:21;19.30;99.90
3602;DHT22;1815;50.950;6.920;2023-10-08T03:11:50;19.30;99.90
3602;DHT22;1815;50.950;6.920;2023-10-08T03:14:17;19.30;99.90
3602;DHT22;1815;50.950;6.920;2023-10-08T03:16:53;19.30;99.90
3602;DHT22;1815;50.950;6.920;2023-10-08T03:19:22;19.30;99.90
3602;DHT22;1815;50.950;6.920;2023-10-08T03:21:48;19.30;99.90
3602;DHT22;1815;50.950;6.920;2023-10-08T03:24:19;19.40;99.90
3602;DHT22;1815;50.950;6.920;2023-10-08T03:27:00;19.40;99.90
3602;DHT22;1815;50.950;6.920;2023-10-08T03:29:34;19.40;99.90
3602;DHT22;1815;50.950;6.920;2023-10-08T03:32:12;19.40;99.90
3602;DHT22;1815;50.950;6.920;2023-10-08T03:34:49;19.40;99.90
3602;DHT22;1815;50.950;6.920;2023-10-08T03:37:22;19.40;99.90
3602;DHT22;1815;50.950;6.920;2023-10-08T03:39:55;19.40;99.90
3602;DHT22;1815;50.950;6.920;2023-10-08T03:42:44;19.40;99.90
3602;DHT22;1815;50.950;6.920;2023-10-08T03:45:15;19.40;99.90
3602;DHT22;1815;50.950;6.920;2023-10-08T03:47:48;19.30;99.90
3602;DHT22;1815;50.950;6.920;2023-10-08T03:50:29;19.30;99.90
3602;DHT22;1815;50.950;6.920;2023-10-08T03:53:10;19.30;99.90
3602;DHT22;1815;50.950;6.920;2023-10-08T03:55:39;19.30;99.90
3602;DHT22;1815;50.950;6.920;2023-10-08T03:58:08;19.30;99.90
3602;DHT22;1815;50.950;6.920;2023-10-08T04:00:45;19.30;99.90
3602;DHT22;1815;50.950;6.920;2023-10-08T04:03:11;19.40;99.90
3602;DHT22;1815;50.950;6.920;2023-10-08T04:05:43;19.30;99.90
3602;DHT22;1815;50.950;6.920;2023-10-08T04:08:31;19.40;99.90
3602;DHT22;1815;50.950;6.920;2023-10-08T04:11:11;19.40;99.90
3602;DHT22;1815;50.950;6.920;2023-10-08T04:14:01;19.40;99.90
3602;DHT22;1815;50.950;6.920;2023-10-08T04:16:32;19.40;99.90
3602;DHT22;1815;50.950;6.920;2023-10-08T04:19:03;19.40;99.90
3602;DHT22;1815;50.950;6.920;2023-10-08T04:21:29;19.40;99.90
3602;DHT22;1815;50.950;6.920;2023-10-08T04:23:55;19.40;99.90
3602;DHT22;1815;50.950;6.920;2023-10-08T04:26:23;19.40;99.90
3602;DHT22;1815;50.950;6.920;2023-10-08T04:28:59;19.40;99.90
3602;DHT22;1815;50.950;6.920;2023-10-08T04:31:29;19.40;99.90
3602;DHT22;1815;50.950;6.920;2023-10-08T04:34:12;19.30;99.90
3602;DHT22;1815;50.950;6.920;2023-10-08T04:36:43;19.30;99.90
3602;DHT22;1815;50.950;6.920;2023-10-08T04:39:11;19.30;99.90
3602;DHT22;1815;50.950;6.920;2023-10-08T04:41:47;19.30;99.90
3602;DHT22;1815;50.950;6.920;2023-10-08T04:44:19;19.30;99.90
3602;DHT22;1815;50.950;6.920;2023-10-08T04:46:47;19.20;99.90
3602;DHT22;1815;50.950;6.920;2023-10-08T04:49:18;19.20;99.90
3602;DHT22;1815;50.950;6.920;2023-10-08T04:52:06;19.10;99.90
3602;DHT22;1815;50.950;6.920;2023-10-08T04:54:40;19.10;99.90
3602;DHT22;1815;50.950;6.920;2023-10-08T04:57:07;19.10;99.90
3602;DHT22;1815;50.950;6.920;2023-10-08T04:59:44;19.10;99.90
3602;DHT22;1815;50.950;6.920;2023-10-08T05:02:12;19.00;99.90
3602;DHT22;1815;50.950;6.920;2023-10-08T05:04:51;19.00;99.90
3602;DHT22;1815;50.950;6.920;2023-10-08T05:07:17;19.00;99.90
3602;DHT22;1815;50.950;6.920;2023-10-08T05:09:47;19.00;99.90
3602;DHT22;1815;50.950;6.920;2023-10-08T05:12:28;18.90;99.90
3602;DHT22;1815;50.950;6.920;2023-10-08T05:15:00;19.00;99.90
3602;DHT22;1815;50.950;6.920;2023-10-08T05:17:47;18.90;99.90
3602;DHT22;1815;50.950;6.920;2023-10-08T05:20:20;18.90;99.90
3602;DHT22;1815;50.950;6.920;2023-10-08T05:23:15;18.90;99.90
3602;DHT22;1815;50.950;6.920;2023-10-08T05:25:52;18.90;99.90
3602;DHT22;1815;50.950;6.920;2023-10-08T05:28:35;18.80;99.90
3602;DHT22;1815;50.950;6.920;2023-10-08T05:31:11;18.80;99.90
3602;DHT22;1815;50.950;6.920;2023-10-08T05:33:57;18.70;99.90
3602;DHT22;1815;50.950;6.920;2023-10-08T05:36:42;18.70;99.90
3602;DHT22;1815;50.950;6.920;2023-10-08T05:39:37;18.70;99.90
3602;DHT22;1815;50.950;6.920;2023-10-08T05:42:08;18.60;99.90
3602;DHT22;1815;50.950;6.920;2023-10-08T05:44:46;18.60;99.90
3602;DHT22;1815;50.950;6.920;2023-10-08T05:47:16;18.50;99.90
3602;DHT22;1815;50.950;6.920;2023-10-08T05:50:00;18.50;99.90
3602;DHT22;1815;50.950;6.920;2023-10-08T05:52:47;18.40;99.90
3602;DHT22;1815;50.950;6.920;2023-10-08T05:55:19;18.40;99.90
3602;DHT22;1815;50.950;6.920;2023-10-08T05:58:17;18.40;99.90
3602;DHT22;1815;50.950;6.920;2023-10-08T06:00:47;18.40;99.90
3602;DHT22;1815;50.950;6.920;2023-10-08T06:03:19;18.40;99.90
3602;DHT22;1815;50.950;6.920;2023-10-08T06:06:02;18.40;99.90
3602;DHT22;1815;50.950;6.920;2023-10-08T06:08:48;18.30;99.90
3602;DHT22;1815;50.950;6.920;2023-10-08T06:11:19;18.40;99.90
3602;DHT22;1815;50.950;6.920;2023-10-08T06:14:04;18.40;99.90
3602;DHT22;1815;50.950;6.920;2023-10-08T06:16:43;18.40;99.90
3602;DHT22;1815;50.950;6.920;2023-10-08T06:19:18;18.40;99.90
3602;DHT22;1815;50.950;6.920;2023-10-08T06:21:47;18.40;99.90
3602;DHT22;1815;50.950;6.920;2023-10-08T06:24:12;18.50;99.90
3602;DHT22;1815;50.950;6.920;2023-10-08T06:26:42;18.50;99.90
3602;DHT22;1815;50.950;6.920;2023-10-08T06:29:12;18.50;99.90
3602;DHT22;1815;50.950;6.920;2023-10-08T06:31:45;18.60;99.90
3602;DHT22;1815;50.950;6.920;2023-10-08T06:34:16;18.60;99.90
3602;DHT22;1815;50.950;6.920;2023-10-08T06:36:47;18.70;99.90
3602;DHT22;1815;50.950;6.920;2023-10-08T06:39:32;18.70;99.90
3602;DHT22;1815;50.950;6.920;2023-10-08T06:42:16;18.80;99.90
3602;DHT22;1815;50.950;6.920;2023-10-08T06:44:43;18.90;99.90
3602;DHT22;1815;50.950;6.920;2023-10-08T06:47:12;18.90;99.90
3602;DHT22;1815;50.950;6.920;2023-10-08T06:49:42;19.00;99.90
3602;DHT22;1815;50.950;6.920;2023-10-08T06:52:09;19.10;99.90
3602;DHT22;1815;50.950;6.920;2023-10-08T06:54:36;19.10;99.90
3602;DHT22;1815;50.950;6.920;2023-10-08T06:57:02;19.20;99.90
3602;DHT22;1815;50.950;6.920;2023-10-08T06:59:28;19.30;99.90
3602;DHT22;1815;50.950;6.920;2023-10-08T07:01:57;19.30;99.90
3602;DHT22;1815;50.950;6.920;2023-10-08T07:04:24;19.40;99.90
3602;DHT22;1815;50.950;6.920;2023-10-08T07:06:54;19.50;99.90
3602;DHT22;1815;50.950;6.920;2023-10-08T07:09:19;19.50;99.90
3602;DHT22;1815;50.950;6.920;2023-10-08T07:11:52;19.50;99.90
3602;DHT22;1815;50.950;6.920;2023-10-08T07:14:23;19.60;99.90
3602;DHT22;1815;50.950;6.920;2023-10-08T07:16:53;19.70;99.90
3602;DHT22;1815;50.950;6.920;2023-10-08T07:19:21;19.70;99.90
3602;DHT22;1815;50.950;6.920;2023-10-08T07:21:49;19.80;99.90
3602;DHT22;1815;50.950;6.920;2023-10-08T07:24:19;19.90;99.90
3602;DHT22;1815;50.950;6.920;2023-10-08T07:26:48;19.90;99.90
3602;DHT22;1815;50.950;6.920;2023-10-08T07:29:16;20.00;99.90
3602;DHT22;1815;50.950;6.920;2023-10-08T07:31:44;20.10;99.90
3602;DHT22;1815;50.950;6.920;2023-10-08T07:34:15;20.20;99.90
3602;DHT22;1815;50.950;6.920;2023-10-08T07:36:47;20.20;99.90
3602;DHT22;1815;50.950;6.920;2023-10-08T07:39:13;20.30;99.90
3602;DHT22;1815;50.950;6.920;2023-10-08T07:41:54;20.50;99.90
3602;DHT22;1815;50.950;6.920;2023-10-08T07:44:21;20.60;99.90
3602;DHT22;1815;50.950;6.920;2023-10-08T07:46:51;20.80;99.90
3602;DHT22;1815;50.950;6.920;2023-10-08T07:49:17;20.90;99.90
3602;DHT22;1815;50.950;6.920;2023-10-08T07:51:43;21.00;99.90
3602;DHT22;1815;50.950;6.920;2023-10-08T07:54:22;21.10;99.90
3602;DHT22;1815;50.950;6.920;2023-10-08T07:56:56;21.20;99.90
3602;DHT22;1815;50.950;6.920;2023-10-08T07:59:38;21.30;99.90
3602;DHT22;1815;50.950;6.920;2023-10-08T08:02:07;21.30;99.90
3602;DHT22;1815;50.950;6.920;2023-10-08T08:04:43;21.40;99.90
3602;DHT22;1815;50.950;6.920;2023-10-08T08:07:11;21.50;99.90
3602;DHT22;1815;50.950;6.920;2023-10-08T08:09:43;21.70;99.90
3602;DHT22;1815;50.950;6.920;2023-10-08T08:12:21;21.80;99.90
3602;DHT22;1815;50.950;6.920;2023-10-08T08:14:47;22.00;99.90
3602;DHT22;1815;50.950;6.920;2023-10-08T08:17:18;22.30;99.90
3602;DHT22;1815;50.950;6.920;2023-10-08T08:19:45;22.40;99.90
3602;DHT22;1815;50.950;6.920;2023-10-08T08:22:13;22.50;99.90
3602;DHT22;1815;50.950;6.920;2023-10-08T08:27:19;22.60;99.90
3602;DHT22;1815;50.950;6.920;2023-10-08T08:29:51;22.50;99.90
3602;DHT22;1815;50.950;6.920;2023-10-08T08:32:21;22.50;99.90
3602;DHT22;1815;50.950;6.920;2023-10-08T08:34:47;22.50;99.90
3602;DHT22;1815;50.950;6.920;2023-10-08T08:37:16;22.40;99.90
3602;DHT22;1815;50.950;6.920;2023-10-08T08:39:42;22.40;99.90
3602;DHT22;1815;50.950;6.920;2023-10-08T08:42:08;22.30;99.90
3602;DHT22;1815;50.950;6.920;2023-10-08T08:44:36;22.30;99.90
3602;DHT22;1815;50.950;6.920;2023-10-08T08:47:05;22.30;99.90
3602;DHT22;1815;50.950;6.920;2023-10-08T08:49:36;22.20;99.90
3602;DHT22;1815;50.950;6.920;2023-10-08T08:52:03;22.30;99.90
3602;DHT22;1815;50.950;6.920;2023-10-08T08:54:29;22.30;99.90
3602;DHT22;1815;50.950;6.920;2023-10-08T08:57:00;22.30;99.90
3602;DHT22;1815;50.950;6.920;2023-10-08T08:59:30;22.20;99.90
3602;DHT22;1815;50.950;6.920;2023-10-08T09:01:57;22.30;99.90
3602;DHT22;1815;50.950;6.920;2023-10-08T09:04:29;22.30;99.90
3602;DHT22;1815;50.950;6.920;2023-10-08T09:06:56;22.40;99.90
3602;DHT22;1815;50.950;6.920;2023-10-08T09:09:25;22.40;99.90
3602;DHT22;1815;50.950;6.920;2023-10-08T09:11:56;22.40;99.90
3602;DHT22;1815;50.950;6.920;2023-10-08T09:14:24;22.50;99.90
3602;DHT22;1815;50.950;6.920;2023-10-08T09:16:55;22.50;99.90
3602;DHT22;1815;50.950;6.920;2023-10-08T09:19:21;22.60;99.90
3602;DHT22;1815;50.950;6.920;2023-10-08T09:22:10;22.80;99.90
3602;DHT22;1815;50.950;6.920;2023-10-08T09:24:38;23.00;99.90
3602;DHT22;1815;50.950;6.920;2023-10-08T09:27:11;23.30;99.90
3602;DHT22;1815;50.950;6.920;2023-10-08T09:29:40;23.60;99.90
3602;DHT22;1815;50.950;6.920;2023-10-08T09:32:08;23.80;99.90
3602;DHT22;1815;50.950;6.920;2023-10-08T09:34:35;23.90;99.90
3602;DHT22;1815;50.950;6.920;2023-10-08T09:37:02;24.10;99.90
3602;DHT22;1815;50.950;6.920;2023-10-08T09:39:29;24.20;99.90
3602;DHT22;1815;50.950;6.920;2023-10-08T09:42:00;24.30;99.90
3602;DHT22;1815;50.950;6.920;2023-10-08T09:44:29;24.40;99.90
3602;DHT22;1815;50.950;6.920;2023-10-08T09:47:06;24.40;99.90
3602;DHT22;1815;50.950;6.920;2023-10-08T09:49:40;24.40;99.90
3602;DHT22;1815;50.950;6.920;2023-10-08T09:52:09;24.40;99.90
3602;DHT22;1815;50.950;6.920;2023-10-08T09:57:17;24.30;99.90
3602;DHT22;1815;50.950;6.920;2023-10-08T09:59:45;24.30;99.90
3602;DHT22;1815;50.950;6.920;2023-10-08T10:02:11;24.20;99.90
3602;DHT22;1815;50.950;6.920;2023-10-08T10:04:43;24.30;99.90
3602;DHT22;1815;50.950;6.920;2023-10-08T10:07:11;24.30;99.90
3602;DHT22;1815;50.950;6.920;2023-10-08T10:09:38;24.30;99.90
3602;DHT22;1815;50.950;6.920;2023-10-08T10:12:05;24.30;99.90
3602;DHT22;1815;50.950;6.920;2023-10-08T10:14:45;24.30;99.90
3602;DHT22;1815;50.950;6.920;2023-10-08T10:17:17;24.30;99.90
3602;DHT22;1815;50.950;6.920;2023-10-08T10:19:53;24.40;99.90
3602;DHT22;1815;50.950;6.920;2023-10-08T10:22:31;24.50;99.90
3602;DHT22;1815;50.950;6.920;2023-10-08T10:24:59;24.50;99.90
3602;DHT22;1815;50.950;6.920;2023-10-08T10:27:29;24.60;99.90
3602;DHT22;1815;50.950;6.920;2023-10-08T10:30:05;24.70;99.90
3602;DHT22;1815;50.950;6.920;2023-10-08T10:32:37;24.70;99.90
3602;DHT22;1815;50.950;6.920;2023-10-08T10:35:03;24.70;99.90
3602;DHT22;1815;50.950;6.920;2023-10-08T10:37:32;24.80;99.90
3602;DHT22;1815;50.950;6.920;2023-10-08T10:40:08;24.90;99.90
3602;DHT22;1815;50.950;6.920;2023-10-08T10:42:39;25.10;99.90
3602;DHT22;1815;50.950;6.920;2023-10-08T10:45:15;25.20;99.90
3602;DHT22;1815;50.950;6.920;2023-10-08T10:47:59;25.30;99.90
3602;DHT22;1815;50.950;6.920;2023-10-08T10:50:41;25.40;99.90
3602;DHT22;1815;50.950;6.920;2023-10-08T10:53:26;25.50;99.90
3602;DHT22;1815;50.950;6.920;2023-10-08T10:55:53;25.50;99.90
3602;DHT22;1815;50.950;6.920;2023-10-08T10:58:35;25.60;99.90
3602;DHT22;1815;50.950;6.920;2023-10-08T11:01:05;25.60;99.90
3602;DHT22;1815;50.950;6.920;2023-10-08T11:03:51;25.70;99.90
3602;DHT22;1815;50.950;6.920;2023-10-08T11:06:21;25.70;99.90
3602;DHT22;1815;50.950;6.920;2023-10-08T11:08:51;25.80;99.90
3602;DHT22;1815;50.950;6.920;2023-10-08T11:11:28;25.80;99.90
3602;DHT22;1815;50.950;6.920;2023-10-08T11:13:59;25.90;99.90
3602;DHT22;1815;50.950;6.920;2023-10-08T11:16:28;26.10;99.90
3602;DHT22;1815;50.950;6.920;2023-10-08T11:18:57;26.10;99.90
3602;DHT22;1815;50.950;6.920;2023-10-08T11:21:31;26.30;99.90
3602;DHT22;1815;50.950;6.920;2023-10-08T11:23:59;26.30;99.90
3602;DHT22;1815;50.950;6.920;2023-10-08T11:26:35;26.40;99.90
3602;DHT22;1815;50.950;6.920;2023-10-08T11:29:05;26.30;99.90
3602;DHT22;1815;50.950;6.920;2023-10-08T11:31:31;26.30;99.90
3602;DHT22;1815;50.950;6.920;2023-10-08T11:34:02;26.30;99.90
3602;DHT22;1815;50.950;6.920;2023-10-08T11:36:36;26.30;99.90
3602;DHT22;1815;50.950;6.920;2023-10-08T11:39:14;26.30;99.90
3602;DHT22;1815;50.950;6.920;2023-10-08T11:42:00;26.30;99.90
3602;DHT22;1815;50.950;6.920;2023-10-08T11:44:32;26.20;99.90
3602;DHT22;1815;50.950;6.920;2023-10-08T11:47:05;26.10;99.90
3602;DHT22;1815;50.950;6.920;2023-10-08T11:49:41;26.10;99.90
3602;DHT22;1815;50.950;6.920;2023-10-08T11:52:19;26.10;99.90
3602;DHT22;1815;50.950;6.920;2023-10-08T11:54:49;26.10;99.90
3602;DHT22;1815;50.950;6.920;2023-10-08T11:57:18;26.10;99.90
3602;DHT22;1815;50.950;6.920;2023-10-08T11:59:47;26.10;99.90
3602;DHT22;1815;50.950;6.920;2023-10-08T12:02:13;26.10;99.90
3602;DHT22;1815;50.950;6.920;2023-10-08T12:04:42;26.10;99.90
3602;DHT22;1815;50.950;6.920;2023-10-08T12:07:10;26.00;99.90
3602;DHT22;1815;50.950;6.920;2023-10-08T12:09:36;26.00;99.90
3602;DHT22;1815;50.950;6.920;2023-10-08T12:12:05;26.00;99.90
3602;DHT22;1815;50.950;6.920;2023-10-08T12:14:39;25.90;99.90
3602;DHT22;1815;50.950;6.920;2023-10-08T12:20:06;25.90;99.90
3602;DHT22;1815;50.950;6.920;2023-10-08T12:23:10;25.80;99.90
3602;DHT22;1815;50.950;6.920;2023-10-08T12:29:18;25.70;99.90
3602;DHT22;1815;50.950;6.920;2023-10-08T12:32:01;25.50;99.90
3602;DHT22;1815;50.950;6.920;2023-10-08T12:34:38;25.50;99.90
3602;DHT22;1815;50.950;6.920;2023-10-08T12:37:04;25.30;99.90
3602;DHT22;1815;50.950;6.920;2023-10-08T12:39:51;25.20;99.90
3602;DHT22;1815;50.950;6.920;2023-10-08T12:42:39;25.10;99.90
3602;DHT22;1815;50.950;6.920;2023-10-08T12:45:08;25.00;99.90
3602;DHT22;1815;50.950;6.920;2023-10-08T12:47:38;24.90;99.90
3602;DHT22;1815;50.950;6.920;2023-10-08T12:50:33;24.90;99.90
3602;DHT22;1815;50.950;6.920;2023-10-08T12:53:17;24.80;99.90
3602;DHT22;1815;50.950;6.920;2023-10-08T12:56:09;24.70;99.90
3602;DHT22;1815;50.950;6.920;2023-10-08T12:58:42;24.70;99.90
3602;DHT22;1815;50.950;6.920;2023-10-08T13:01:13;24.70;99.90
3602;DHT22;1815;50.950;6.920;2023-10-08T13:03:43;24.60;99.90
3602;DHT22;1815;50.950;6.920;2023-10-08T13:06:21;24.50;99.90
3602;DHT22;1815;50.950;6.920;2023-10-08T13:08:51;24.40;99.90
3602;DHT22;1815;50.950;6.920;2023-10-08T13:11:21;24.30;99.90
3602;DHT22;1815;50.950;6.920;2023-10-08T13:13:53;24.30;99.90
3602;DHT22;1815;50.950;6.920;2023-10-08T13:16:27;24.20;99.90
3602;DHT22;1815;50.950;6.920;2023-10-08T13:19:05;24.00;99.90
3602;DHT22;1815;50.950;6.920;2023-10-08T13:21:34;23.90;99.90
3602;DHT22;1815;50.950;6.920;2023-10-08T13:24:02;23.80;99.90
3602;DHT22;1815;50.950;6.920;2023-10-08T13:26:29;23.80;99.90
3602;DHT22;1815;50.950;6.920;2023-10-08T13:28:58;23.90;99.90
3602;DHT22;1815;50.950;6.920;2023-10-08T13:31:25;24.00;99.90
3602;DHT22;1815;50.950;6.920;2023-10-08T13:34:00;24.00;99.90
3602;DHT22;1815;50.950;6.920;2023-10-08T13:36:35;24.10;99.90
3602;DHT22;1815;50.950;6.920;2023-10-08T13:39:07;24.10;99.90
3602;DHT22;1815;50.950;6.920;2023-10-08T13:41:36;24.10;99.90
3602;DHT22;1815;50.950;6.920;2023-10-08T13:44:04;24.20;99.90
3602;DHT22;1815;50.950;6.920;2023-10-08T13:46:34;24.20;99.90
3602;DHT22;1815;50.950;6.920;2023-10-08T13:49:02;24.20;99.90
3602;DHT22;1815;50.950;6.920;2023-10-08T13:51:28;24.10;99.90
3602;DHT22;1815;50.950;6.920;2023-10-08T13:53:56;24.10;99.90
3602;DHT22;1815;50.950;6.920;2023-10-08T13:56:28;24.10;99.90
3602;DHT22;1815;50.950;6.920;2023-10-08T13:58:57;24.10;99.90
3602;DHT22;1815;50.950;6.920;2023-10-08T14:01:40;24.10;99.90
3602;DHT22;1815;50.950;6.920;2023-10-08T14:04:08;24.10;99.90
3602;DHT22;1815;50.950;6.920;2023-10-08T14:06:37;24.10;99.90
3602;DHT22;1815;50.950;6.920;2023-10-08T14:09:04;24.00;99.90
3602;DHT22;1815;50.950;6.920;2023-10-08T14:11:34;24.00;99.90
3602;DHT22;1815;50.950;6.920;2023-10-08T14:14:01;24.00;99.90
3602;DHT22;1815;50.950;6.920;2023-10-08T14:16:41;24.00;99.90
3602;DHT22;1815;50.950;6.920;2023-10-08T14:19:16;24.00;99.90
3602;DHT22;1815;50.950;6.920;2023-10-08T14:21:43;24.00;99.90
3602;DHT22;1815;50.950;6.920;2023-10-08T14:24:19;23.90;99.90
3602;DHT22;1815;50.950;6.920;2023-10-08T14:26:49;23.90;99.90
3602;DHT22;1815;50.950;6.920;2023-10-08T14:29:20;23.80;99.90
3602;DHT22;1815;50.950;6.920;2023-10-08T14:31:46;23.70;99.90
3602;DHT22;1815;50.950;6.920;2023-10-08T14:34:15;23.70;99.90
3602;DHT22;1815;50.950;6.920;2023-10-08T14:36:42;23.60;99.90
3602;DHT22;1815;50.950;6.920;2023-10-08T14:39:26;23.50;99.90
3602;DHT22;1815;50.950;6.920;2023-10-08T14:42:11;23.50;99.90
3602;DHT22;1815;50.950;6.920;2023-10-08T14:44:59;23.40;99.90
3602;DHT22;1815;50.950;6.920;2023-10-08T14:47:26;23.40;99.90
3602;DHT22;1815;50.950;6.920;2023-10-08T14:49:52;23.40;99.90
3602;DHT22;1815;50.950;6.920;2023-10-08T14:52:21;23.40;99.90
3602;DHT22;1815;50.950;6.920;2023-10-08T14:54:49;23.30;99.90
3602;DHT22;1815;50.950;6.920;2023-10-08T14:57:17;23.30;99.90
3602;DHT22;1815;50.950;6.920;2023-10-08T14:59:44;23.30;99.90
3602;DHT22;1815;50.950;6.920;2023-10-08T15:02:10;23.20;99.90
3602;DHT22;1815;50.950;6.920;2023-10-08T15:04:38;23.10;99.90
3602;DHT22;1815;50.950;6.920;2023-10-08T15:07:08;23.10;99.90
3602;DHT22;1815;50.950;6.920;2023-10-08T15:09:37;23.00;99.90
3602;DHT22;1815;50.950;6.920;2023-10-08T15:12:05;23.00;99.90
3602;DHT22;1815;50.950;6.920;2023-10-08T15:14:34;22.90;99.90
3602;DHT22;1815;50.950;6.920;2023-10-08T15:17:00;22.90;99.90
3602;DHT22;1815;50.950;6.920;2023-10-08T15:19:29;22.90;99.90
3602;DHT22;1815;50.950;6.920;2023-10-08T15:21:57;22.90;99.90
3602;DHT22;1815;50.950;6.920;2023-10-08T15:24:24;22.90;99.90
3602;DHT22;1815;50.950;6.920;2023-10-08T15:26:54;22.90;99.90
3602;DHT22;1815;50.950;6.920;2023-10-08T15:29:21;22.90;99.90
3602;DHT22;1815;50.950;6.920;2023-10-08T15:31:48;22.90;99.90
3602;DHT22;1815;50.950;6.920;2023-10-08T15:34:15;22.90;99.90
3602;DHT22;1815;50.950;6.920;2023-10-08T15:36:41;22.90;99.90
3602;DHT22;1815;50.950;6.920;2023-10-08T15:39:08;23.00;99.90
3602;DHT22;1815;50.950;6.920;2023-10-08T15:42:00;23.00;99.90
3602;DHT22;1815;50.950;6.920;2023-10-08T15:44:29;22.90;99.90
3602;DHT22;1815;50.950;6.920;2023-10-08T15:46:55;22.90;99.90
3602;DHT22;1815;50.950;6.920;2023-10-08T15:49:21;22.90;99.90
3602;DHT22;1815;50.950;6.920;2023-10-08T15:51:47;22.90;99.90
3602;DHT22;1815;50.950;6.920;2023-10-08T15:54:13;22.80;99.90
3602;DHT22;1815;50.950;6.920;2023-10-08T15:56:39;22.80;99.90
3602;DHT22;1815;50.950;6.920;2023-10-08T15:59:05;22.70;99.90
3602;DHT22;1815;50.950;6.920;2023-10-08T16:01:33;22.70;99.90
3602;DHT22;1815;50.950;6.920;2023-10-08T16:03:59;22.70;99.90
3602;DHT22;1815;50.950;6.920;2023-10-08T16:06:26;22.70;99.90
3602;DHT22;1815;50.950;6.920;2023-10-08T16:08:52;22.70;99.90
3602;DHT22;1815;50.950;6.920;2023-10-08T16:11:18;22.70;99.90
3602;DHT22;1815;50.950;6.920;2023-10-08T16:13:47;22.60;99.90
3602;DHT22;1815;50.950;6.920;2023-10-08T16:16:13;22.60;99.90
3602;DHT22;1815;50.950;6.920;2023-10-08T16:18:39;22.60;99.90
3602;DHT22;1815;50.950;6.920;2023-10-08T16:21:06;22.50;99.90
3602;DHT22;1815;50.950;6.920;2023-10-08T16:23:36;22.40;99.90
3602;DHT22;1815;50.950;6.920;2023-10-08T16:26:03;22.30;99.90
3602;DHT22;1815;50.950;6.920;2023-10-08T16:28:29;22.30;99.90
3602;DHT22;1815;50.950;6.920;2023-10-08T16:31:00;22.20;99.90
3602;DHT22;1815;50.950;6.920;2023-10-08T16:33:30;22.20;99.90
3602;DHT22;1815;50.950;6.920;2023-10-08T16:35:56;22.10;99.90
3602;DHT22;1815;50.950;6.920;2023-10-08T16:38:22;22.10;99.90
3602;DHT22;1815;50.950;6.920;2023-10-08T16:40:48;22.00;99.90
3602;DHT22;1815;50.950;6.920;2023-10-08T16:43:13;21.90;99.90